Time;durP1;ratioP1;P1;durP2;ratioP2;P2;SDS_P1;SDS_P2;PMS_P1;PMS_P2;Temp;Humidity;BMP_temperature;BMP_pressure;BME280_temperature;BME280_humidity;BME280_pressure;Samples;Min_cycle;Max_cycle;Signal;HPM_P1;HPM_P2
2022/08/18 00:01:18;;;;;;;43.13;38.80;;;18.70;99.90;;;;;;5089763;28;20578;-46
2022/08/18 00:03:44;;;;;;;43.73;39.30;;;18.70;99.90;;;;;;5089606;28;20497;-45
2022/08/18 00:06:10;;;;;;;43.90;39.23;;;18.70;99.90;;;;;;5089570;28;20422;-43
2022/08/18 00:08:36;;;;;;;41.53;37.43;;;18.70;99.90;;;;;;5088928;28;20814;-47
2022/08/18 00:11:02;;;;;;;40.10;36.10;;;18.80;99.90;;;;;;5089294;28;20415;-45
2022/08/18 00:13:28;;;;;;;42.57;38.20;;;18.80;99.90;;;;;;5089114;28;20227;-48
2022/08/18 00:15:54;;;;;;;44.73;40.20;;;18.70;99.90;;;;;;5089240;28;20980;-44
2022/08/18 00:18:19;;;;;;;47.17;42.30;;;18.70;99.90;;;;;;5088584;28;20200;-47
2022/08/18 00:20:45;;;;;;;43.63;38.93;;;18.70;99.90;;;;;;5088435;28;20219;-44
2022/08/18 00:23:12;;;;;;;41.27;37.10;;;18.60;99.90;;;;;;5089468;28;20270;-45
2022/08/18 00:25:38;;;;;;;42.37;38.00;;;18.60;99.90;;;;;;5089269;28;20588;-48
2022/08/18 00:28:04;;;;;;;45.90;40.90;;;18.60;99.90;;;;;;5086739;28;20476;-44
2022/08/18 00:30:30;;;;;;;43.23;38.70;;;18.60;99.90;;;;;;5089435;28;20292;-44
2022/08/18 00:32:58;;;;;;;39.73;35.60;;;18.60;99.90;;;;;;5088809;28;20798;-46
2022/08/18 00:35:36;;;;;;;41.23;37.10;;;18.60;99.90;;;;;;5089115;28;20492;-46
2022/08/18 00:38:05;;;;;;;42.97;38.47;;;18.50;99.90;;;;;;5088222;28;20426;-45
2022/08/18 00:40:41;;;;;;;43.20;38.70;;;18.50;99.90;;;;;;5088717;28;20444;-45
2022/08/18 00:43:12;;;;;;;40.70;36.70;;;18.50;99.90;;;;;;5075676;28;20818;-44
2022/08/18 00:45:41;;;;;;;43.23;38.77;;;18.40;99.90;;;;;;5089023;28;20422;-45
2022/08/18 00:48:09;;;;;;;42.70;38.20;;;18.40;99.90;;;;;;5088041;28;20418;-46
2022/08/18 00:50:53;;;;;;;44.17;39.57;;;18.40;99.90;;;;;;5088831;28;20852;-46
2022/08/18 00:53:30;;;;;;;42.20;37.90;;;18.30;99.90;;;;;;5088515;28;20476;-44
2022/08/18 00:56:04;;;;;;;43.30;38.80;;;18.30;99.90;;;;;;5089056;28;20434;-46
2022/08/18 00:58:36;;;;;;;43.10;38.47;;;18.30;99.90;;;;;;5088067;28;20422;-44
2022/08/18 01:01:05;;;;;;;43.00;38.67;;;18.30;99.90;;;;;;5089282;28;20499;-44
2022/08/18 01:03:32;;;;;;;41.67;37.37;;;18.30;99.90;;;;;;5088006;28;20509;-44
2022/08/18 01:06:05;;;;;;;44.90;40.23;;;18.30;99.90;;;;;;5088641;28;20448;-45
2022/08/18 01:08:31;;;;;;;42.30;37.90;;;18.20;99.90;;;;;;5087685;28;20415;-45
2022/08/18 01:11:01;;;;;;;43.50;39.13;;;18.20;99.90;;;;;;5088558;28;20779;-46
2022/08/18 01:13:30;;;;;;;44.00;39.33;;;18.20;99.90;;;;;;5088198;28;20200;-45
2022/08/18 01:15:56;;;;;;;45.57;40.87;;;18.20;99.90;;;;;;5088134;28;20747;-46
2022/08/18 01:24:08;;;;;;;49.67;41.20;;;18.20;99.90;;;;;;5088151;28;20506;-45
2022/08/18 01:26:37;;;;;;;47.90;42.80;;;18.20;99.90;;;;;;5087581;28;20769;-44
2022/08/18 01:29:10;;;;;;;44.90;40.20;;;18.30;99.90;;;;;;5093686;28;20441;-43
2022/08/18 01:31:54;;;;;;;47.53;42.37;;;18.30;99.90;;;;;;5094921;28;20450;-47
2022/08/18 01:34:23;;;;;;;48.87;43.67;;;18.40;99.90;;;;;;5095176;28;20422;-44
2022/08/18 01:36:53;;;;;;;49.33;44.10;;;18.40;99.90;;;;;;5094046;28;20497;-46
2022/08/18 01:39:20;;;;;;;48.60;43.50;;;18.40;99.90;;;;;;5094924;28;20418;-45
2022/08/18 01:41:46;;;;;;;48.87;43.77;;;18.40;99.90;;;;;;5095259;28;20741;-42
2022/08/18 01:44:11;;;;;;;48.20;43.00;;;18.50;99.90;;;;;;5094945;28;20447;-45
2022/08/18 01:46:40;;;;;;;52.37;43.37;;;18.50;99.90;;;;;;5094248;28;20705;-44
2022/08/18 01:49:07;;;;;;;51.53;45.67;;;18.50;99.90;;;;;;5094906;28;20177;-44
2022/08/18 01:51:36;;;;;;;50.57;45.27;;;18.50;99.90;;;;;;5095008;28;20840;-44
2022/08/18 01:54:03;;;;;;;48.87;42.60;;;18.50;99.90;;;;;;5095046;28;20433;-45
2022/08/18 01:56:29;;;;;;;50.97;45.50;;;18.50;99.90;;;;;;5094754;28;20422;-47
2022/08/18 01:58:56;;;;;;;51.30;45.73;;;18.50;99.90;;;;;;5094268;28;20458;-43
2022/08/18 02:01:23;;;;;;;52.97;46.03;;;18.50;99.90;;;;;;5094742;28;20429;-45
2022/08/18 02:03:54;;;;;;;51.87;46.47;;;18.50;99.90;;;;;;5094219;28;20511;-47
2022/08/18 02:06:20;;;;;;;50.00;44.00;;;18.50;99.90;;;;;;5094944;28;20439;-44
2022/08/18 02:08:47;;;;;;;54.23;48.30;;;18.50;99.90;;;;;;5094046;28;20422;-42
2022/08/18 02:11:13;;;;;;;57.90;48.73;;;18.50;99.90;;;;;;5094853;28;20891;-44
2022/08/18 02:13:39;;;;;;;51.30;45.83;;;18.50;99.90;;;;;;5094592;28;20428;-43
2022/08/18 02:16:06;;;;;;;54.43;48.00;;;18.50;99.90;;;;;;5094734;28;20507;-43
2022/08/18 02:18:36;;;;;;;55.93;48.60;;;18.50;99.90;;;;;;5093490;28;20449;-43
2022/08/18 02:21:09;;;;;;;59.97;50.77;;;18.50;99.90;;;;;;5093738;28;20430;-46
2022/08/18 02:23:35;;;;;;;75.53;58.37;;;18.60;99.90;;;;;;5094603;28;20552;-44
2022/08/18 02:26:07;;;;;;;72.50;57.73;;;18.70;99.90;;;;;;5094474;28;20422;-47
2022/08/18 02:28:33;;;;;;;76.37;58.30;;;18.80;99.90;;;;;;5093715;28;20426;-43
2022/08/18 02:31:25;;;;;;;75.90;57.40;;;18.80;99.90;;;;;;5094111;28;20444;-47
2022/08/18 02:33:51;;;;;;;71.70;57.27;;;18.90;99.90;;;;;;5092688;28;20223;-46
2022/08/18 02:36:17;;;;;;;75.77;57.57;;;19.00;99.90;;;;;;5094674;28;20422;-43
2022/08/18 02:38:43;;;;;;;70.60;56.10;;;19.00;99.90;;;;;;5092097;28;20522;-43
2022/08/18 02:41:11;;;;;;;71.63;56.57;;;19.10;99.90;;;;;;5089942;28;20611;-44
2022/08/18 02:43:38;;;;;;;70.30;55.63;;;19.10;99.90;;;;;;5091114;28;20462;-45
2022/08/18 02:46:05;;;;;;;68.47;53.13;;;19.10;99.90;;;;;;5091077;28;20686;-45
2022/08/18 02:48:34;;;;;;;64.40;49.60;;;19.20;99.90;;;;;;5090324;28;20913;-47
2022/08/18 02:51:12;;;;;;;64.73;51.87;;;19.20;99.90;;;;;;5091185;28;20435;-42
2022/08/18 02:53:42;;;;;;;64.57;51.23;;;19.20;99.90;;;;;;5090638;28;20501;-45
2022/08/18 02:56:30;;;;;;;60.63;49.03;;;19.20;99.90;;;;;;5090814;28;20434;-43
2022/08/18 02:59:03;;;;;;;63.30;47.53;;;19.30;99.90;;;;;;5090536;28;20461;-46
2022/08/18 03:01:31;;;;;;;65.33;50.97;;;19.20;99.90;;;;;;5091041;28;20415;-43
2022/08/18 03:03:58;;;;;;;62.20;49.90;;;19.10;99.90;;;;;;5090331;28;20461;-45
2022/08/18 03:06:26;;;;;;;61.00;50.97;;;19.20;99.90;;;;;;5090909;28;20429;-46
2022/08/18 03:08:52;;;;;;;61.00;48.97;;;19.10;99.90;;;;;;5089981;28;20426;-43
2022/08/18 03:11:26;;;;;;;63.00;48.90;;;19.10;99.90;;;;;;5090725;28;20909;-44
2022/08/18 03:13:53;;;;;;;60.60;50.80;;;19.10;99.90;;;;;;5090428;28;20418;-44
2022/08/18 03:16:20;;;;;;;62.07;50.77;;;19.10;99.90;;;;;;5090615;28;20445;-44
2022/08/18 03:18:46;;;;;;;60.60;46.40;;;19.10;99.90;;;;;;5090009;28;20743;-46
2022/08/18 03:21:16;;;;;;;60.97;49.30;;;19.10;99.90;;;;;;5089285;28;20482;-45
2022/08/18 03:23:43;;;;;;;65.47;51.13;;;19.10;99.90;;;;;;5090261;28;20466;-45
2022/08/18 03:26:11;;;;;;;59.97;48.53;;;19.10;99.90;;;;;;5090362;28;20426;-46
2022/08/18 03:28:39;;;;;;;61.80;50.73;;;19.10;99.90;;;;;;5089561;28;20427;-49
2022/08/18 03:31:06;;;;;;;63.53;51.10;;;19.10;99.90;;;;;;5090157;28;20789;-43
2022/08/18 03:33:32;;;;;;;62.80;51.13;;;19.00;99.90;;;;;;5089879;28;20513;-44
2022/08/18 03:36:10;;;;;;;58.93;47.57;;;19.00;99.90;;;;;;5090202;28;20855;-44
2022/08/18 03:38:37;;;;;;;59.40;49.30;;;19.00;99.90;;;;;;5089509;28;20192;-47
2022/08/18 03:41:04;;;;;;;59.83;48.10;;;19.00;99.90;;;;;;5089770;28;20838;-42
2022/08/18 03:43:30;;;;;;;60.60;47.33;;;19.00;99.90;;;;;;5089985;28;20466;-43
2022/08/18 03:46:00;;;;;;;56.70;47.90;;;19.00;99.90;;;;;;5089913;28;20418;-44
2022/08/18 03:48:26;;;;;;;55.70;46.50;;;19.00;99.90;;;;;;5089244;28;20679;-43
2022/08/18 03:50:51;;;;;;;56.03;47.70;;;19.10;99.90;;;;;;5089371;28;20430;-44
2022/08/18 03:53:18;;;;;;;61.63;48.40;;;19.10;99.90;;;;;;5089802;28;20272;-45
2022/08/18 03:55:44;;;;;;;61.60;48.23;;;19.20;99.90;;;;;;5088499;28;20598;-43
2022/08/18 03:58:13;;;;;;;60.77;47.00;;;19.20;99.90;;;;;;5089061;28;20434;-44
2022/08/18 04:00:40;;;;;;;66.60;47.20;;;19.20;99.90;;;;;;5089383;28;20647;-47
2022/08/18 04:03:06;;;;;;;68.10;50.90;;;19.10;99.90;;;;;;5089747;28;20458;-45
2022/08/18 04:05:37;;;;;;;70.20;50.00;;;19.10;99.90;;;;;;5089645;28;20442;-42
2022/08/18 04:08:04;;;;;;;70.90;52.37;;;19.10;99.90;;;;;;5089111;28;20427;-43
2022/08/18 04:10:30;;;;;;;78.07;54.00;;;19.10;99.90;;;;;;5089741;28;20419;-45
2022/08/18 04:12:56;;;;;;;70.63;51.77;;;19.10;99.90;;;;;;5089173;28;20437;-47
2022/08/18 04:15:22;;;;;;;75.33;53.30;;;19.10;99.90;;;;;;5089395;28;20261;-43
2022/08/18 04:17:47;;;;;;;75.57;51.70;;;19.10;99.90;;;;;;5088672;28;20245;-43
2022/08/18 04:20:13;;;;;;;83.20;56.13;;;19.10;99.90;;;;;;5088626;28;20992;-43
2022/08/18 04:22:39;;;;;;;81.47;56.80;;;19.10;99.90;;;;;;5089138;28;20598;-47
2022/08/18 04:25:08;;;;;;;88.83;54.53;;;19.20;99.90;;;;;;5089427;28;20255;-44
2022/08/18 04:27:34;;;;;;;87.80;59.27;;;19.20;99.90;;;;;;5088073;28;20583;-43
2022/08/18 04:30:00;;;;;;;88.53;58.00;;;19.10;99.90;;;;;;5089290;28;20517;-47
2022/08/18 04:32:26;;;;;;;91.57;59.13;;;19.10;99.90;;;;;;5089097;28;20970;-44
2022/08/18 04:34:51;;;;;;;95.47;58.63;;;19.00;99.90;;;;;;5089065;28;20194;-44
2022/08/18 04:37:18;;;;;;;94.07;57.90;;;19.00;99.90;;;;;;5088584;28;20464;-45
2022/08/18 04:39:44;;;;;;;101.27;61.93;;;19.00;99.90;;;;;;5089007;28;20206;-43
2022/08/18 04:42:10;;;;;;;89.30;57.40;;;19.00;99.90;;;;;;5088345;28;20517;-43
2022/08/18 04:44:36;;;;;;;108.83;63.53;;;19.00;99.90;;;;;;5088796;28;20551;-48
2022/08/18 04:47:04;;;;;;;97.17;61.40;;;19.00;99.90;;;;;;5088198;28;20195;-44
2022/08/18 04:49:30;;;;;;;99.33;62.97;;;19.00;99.90;;;;;;5088682;28;20684;-43
2022/08/18 04:54:41;;;;;;;100.87;60.80;;;18.90;99.90;;;;;;5083722;28;20419;-45
2022/08/18 04:57:12;;;;;;;107.73;64.87;;;18.90;99.90;;;;;;5088501;28;20430;-48
2022/08/18 04:59:40;;;;;;;116.33;67.97;;;18.90;99.90;;;;;;5088507;28;20961;-44
2022/08/18 05:02:07;;;;;;;114.07;64.50;;;18.90;99.90;;;;;;5088221;28;20475;-43
2022/08/18 05:04:36;;;;;;;113.80;65.57;;;18.90;99.90;;;;;;5088086;28;20806;-47
2022/08/18 05:07:06;;;;;;;111.20;65.60;;;18.80;99.90;;;;;;5086596;28;20522;-43
2022/08/18 05:09:34;;;;;;;117.33;66.20;;;18.80;99.90;;;;;;5088304;28;20765;-46
2022/08/18 05:12:02;;;;;;;114.80;67.20;;;18.80;99.90;;;;;;5088288;28;20479;-48
2022/08/18 05:14:28;;;;;;;99.60;60.67;;;18.80;99.90;;;;;;5088708;28;20426;-45
2022/08/18 05:16:58;;;;;;;111.03;63.70;;;18.80;99.90;;;;;;5087747;28;20475;-46
2022/08/18 05:19:25;;;;;;;106.23;61.77;;;18.90;99.90;;;;;;5087566;28;20426;-44
2022/08/18 05:21:52;;;;;;;108.70;62.93;;;18.90;99.90;;;;;;5087928;28;20576;-42
2022/08/18 05:24:19;;;;;;;109.43;65.40;;;18.90;99.90;;;;;;5088037;28;20430;-43
2022/08/18 05:26:44;;;;;;;114.57;63.20;;;18.80;99.90;;;;;;5087780;28;20427;-44
2022/08/18 05:29:11;;;;;;;98.03;57.83;;;18.90;99.90;;;;;;5088296;28;20434;-49
2022/08/18 05:31:37;;;;;;;78.40;52.83;;;18.90;99.90;;;;;;5088230;28;20182;-47
2022/08/18 05:34:03;;;;;;;66.50;45.13;;;18.90;99.90;;;;;;5088335;28;20430;-43
2022/08/18 05:36:42;;;;;;;71.40;47.83;;;18.90;99.90;;;;;;5087786;28;20437;-45
2022/08/18 05:39:10;;;;;;;67.20;46.37;;;19.00;99.90;;;;;;5088010;28;20418;-46
2022/08/18 05:41:40;;;;;;;62.37;43.90;;;19.00;99.90;;;;;;5088119;28;20501;-46
2022/08/18 05:44:08;;;;;;;71.17;46.30;;;19.00;99.90;;;;;;5087841;28;20988;-45
2022/08/18 05:46:46;;;;;;;67.07;46.20;;;19.00;99.90;;;;;;5087295;28;20882;-44
2022/08/18 05:49:13;;;;;;;60.93;42.27;;;19.00;99.90;;;;;;5087086;28;20555;-43
2022/08/18 05:51:46;;;;;;;67.17;45.93;;;19.00;99.90;;;;;;5080595;28;20897;-44
2022/08/18 05:57:04;;;;;;;62.80;46.07;;;19.00;99.90;;;;;;5081239;28;20445;-46
2022/08/18 05:59:36;;;;;;;59.73;41.40;;;19.10;99.90;;;;;;5088187;28;20438;-42
2022/08/18 06:02:26;;;;;;;65.87;45.00;;;19.10;99.90;;;;;;5085638;28;20438;-43
2022/08/18 06:04:54;;;;;;;67.00;46.80;;;19.10;99.90;;;;;;5080435;28;20438;-47
2022/08/18 06:07:40;;;;;;;68.53;46.93;;;19.20;99.90;;;;;;5087075;28;20449;-42
2022/08/18 06:10:07;;;;;;;68.93;44.53;;;19.30;99.90;;;;;;5087564;28;20430;-45
2022/08/18 06:12:42;;;;;;;63.57;43.63;;;19.20;99.90;;;;;;5087861;28;20932;-43
2022/08/18 06:15:15;;;;;;;73.00;47.10;;;19.20;99.90;;;;;;5085267;28;20434;-47
2022/08/18 06:17:47;;;;;;;65.63;45.63;;;19.20;99.90;;;;;;5088940;28;20419;-45
2022/08/18 06:20:29;;;;;;;68.80;46.07;;;19.20;99.90;;;;;;5090256;28;20442;-43
2022/08/18 06:23:28;;;;;;;64.70;42.77;;;19.20;99.90;;;;;;5090360;28;20534;-45
2022/08/18 06:26:26;;;;;;;69.13;47.07;;;19.30;99.90;;;;;;5091718;28;20419;-44
2022/08/18 06:29:26;;;;;;;67.47;46.80;;;19.30;99.90;;;;;;5090990;28;20429;-43
2022/08/18 06:32:14;;;;;;;74.23;47.30;;;19.40;99.90;;;;;;5052045;28;20435;-44
2022/08/18 06:35:11;;;;;;;71.00;42.30;;;19.40;99.90;;;;;;5088849;28;20465;-43
2022/08/18 06:38:39;;;;;;;76.63;48.47;;;19.50;99.90;;;;;;5081191;28;20434;-45
2022/08/18 06:41:17;;;;;;;73.00;47.17;;;19.40;99.90;;;;;;5090878;28;20415;-42
2022/08/18 06:43:58;;;;;;;67.50;43.63;;;19.40;99.90;;;;;;5091332;28;20476;-48
2022/08/18 06:46:40;;;;;;;68.50;45.07;;;19.40;99.90;;;;;;5090505;28;20453;-47
2022/08/18 06:49:13;;;;;;;75.13;44.63;;;19.40;99.90;;;;;;5089936;28;20422;-43
2022/08/18 06:51:39;;;;;;;71.07;46.20;;;19.40;99.90;;;;;;5091085;28;20517;-41
2022/08/18 06:54:23;;;;;;;67.93;44.90;;;19.40;99.90;;;;;;5090403;28;20482;-43
2022/08/18 06:56:52;;;;;;;68.07;45.90;;;19.40;99.90;;;;;;5088773;28;20446;-46
2022/08/18 06:59:19;;;;;;;63.77;44.37;;;19.40;99.90;;;;;;5090784;28;20434;-43
2022/08/18 07:01:49;;;;;;;64.33;43.10;;;19.40;99.90;;;;;;5090448;28;20836;-43
2022/08/18 07:04:37;;;;;;;67.23;43.90;;;19.40;99.90;;;;;;5090551;28;20557;-47
2022/08/18 07:07:15;;;;;;;62.90;41.57;;;19.40;99.90;;;;;;5090203;28;20418;-42
2022/08/18 07:09:40;;;;;;;64.10;42.73;;;19.50;99.90;;;;;;5089343;28;20957;-45
2022/08/18 07:12:08;;;;;;;56.90;38.97;;;19.50;99.90;;;;;;5090823;28;20422;-44
2022/08/18 07:14:47;;;;;;;54.00;39.10;;;19.50;99.90;;;;;;5091045;28;20200;-44
2022/08/18 07:17:21;;;;;;;54.83;40.40;;;19.50;99.90;;;;;;5089624;28;20457;-43
2022/08/18 07:19:55;;;;;;;57.50;40.20;;;19.50;99.90;;;;;;5088742;28;20880;-45
2022/08/18 07:22:21;;;;;;;55.10;38.33;;;19.50;99.90;;;;;;5090465;28;20840;-46
2022/08/18 07:24:49;;;;;;;54.87;39.17;;;19.50;99.90;;;;;;5089986;28;20434;-45
2022/08/18 07:27:21;;;;;;;58.53;40.93;;;19.50;99.90;;;;;;5089051;28;20237;-45
2022/08/18 07:30:04;;;;;;;56.43;37.90;;;19.50;99.90;;;;;;5090743;28;20847;-46
2022/08/18 07:32:46;;;;;;;58.67;40.83;;;19.50;99.90;;;;;;5090171;28;20761;-46
2022/08/18 07:35:16;;;;;;;55.83;41.90;;;19.50;99.90;;;;;;5090509;28;20479;-46
2022/08/18 07:37:55;;;;;;;59.90;41.13;;;19.50;99.90;;;;;;5089498;28;20488;-44
2022/08/18 07:40:30;;;;;;;59.60;42.67;;;19.50;99.90;;;;;;5078924;28;20462;-43
2022/08/18 07:43:08;;;;;;;64.27;42.77;;;19.50;99.90;;;;;;5089825;28;20488;-47
2022/08/18 07:45:41;;;;;;;55.50;38.97;;;19.50;99.90;;;;;;5089659;28;20426;-46
2022/08/18 07:48:12;;;;;;;64.70;41.50;;;19.50;99.90;;;;;;5089170;28;20460;-44
2022/08/18 07:51:06;;;;;;;56.07;40.03;;;19.50;99.90;;;;;;5090015;28;20430;-43
2022/08/18 07:53:51;;;;;;;49.30;36.83;;;19.50;99.90;;;;;;5084853;28;20438;-50
2022/08/18 07:56:38;;;;;;;56.63;39.07;;;19.60;99.90;;;;;;5090094;28;20835;-43
2022/08/18 07:59:28;;;;;;;70.43;46.83;;;19.60;99.90;;;;;;5089913;28;20448;-46
2022/08/18 08:02:13;;;;;;;62.97;42.03;;;19.50;99.90;;;;;;5089594;28;20433;-42
2022/08/18 08:05:05;;;;;;;65.17;42.37;;;19.50;99.90;;;;;;5089838;28;20445;-49
2022/08/18 08:07:43;;;;;;;63.33;43.57;;;19.50;99.90;;;;;;5088931;28;20906;-43
2022/08/18 08:10:31;;;;;;;68.67;46.40;;;19.50;99.90;;;;;;5089724;28;20510;-43
2022/08/18 08:13:27;;;;;;;70.17;45.63;;;19.50;99.90;;;;;;5089577;28;20507;-42
2022/08/18 08:16:07;;;;;;;57.37;40.87;;;19.50;99.90;;;;;;5089734;28;20414;-47
2022/08/18 08:18:48;;;;;;;62.03;43.27;;;19.50;99.90;;;;;;5088581;28;20414;-45
2022/08/18 08:21:18;;;;;;;61.13;42.03;;;19.50;99.90;;;;;;5088105;28;20423;-46
2022/08/18 08:24:08;;;;;;;64.27;41.87;;;19.60;99.90;;;;;;5089021;28;20553;-46
2022/08/18 08:27:03;;;;;;;63.40;43.53;;;19.60;99.90;;;;;;5089126;28;20413;-44
2022/08/18 08:29:58;;;;;;;60.20;40.93;;;19.70;99.90;;;;;;5088883;28;20502;-47
2022/08/18 08:32:41;;;;;;;62.10;42.20;;;19.90;99.90;;;;;;5087973;28;20516;-49
2022/08/18 08:35:41;;;;;;;61.03;42.30;;;19.90;99.90;;;;;;5089148;28;20426;-45
2022/08/18 08:38:36;;;;;;;61.40;41.80;;;20.00;99.90;;;;;;5081478;28;20449;-49
2022/08/18 08:41:08;;;;;;;52.50;38.00;;;20.20;99.90;;;;;;5050768;28;20829;-44
2022/08/18 08:43:42;;;;;;;53.17;39.87;;;20.20;99.90;;;;;;5088870;28;20502;-43
2022/08/18 08:46:23;;;;;;;51.50;39.00;;;20.30;99.90;;;;;;5088607;28;20819;-45
2022/08/18 08:49:02;;;;;;;53.73;38.93;;;20.40;99.90;;;;;;5088089;28;20422;-46
2022/08/18 08:51:55;;;;;;;52.20;37.50;;;20.40;99.90;;;;;;5089024;28;20422;-46
2022/08/18 08:54:27;;;;;;;48.83;36.60;;;20.60;99.90;;;;;;5088113;28;20429;-42
2022/08/18 08:56:55;;;;;;;51.17;37.77;;;20.60;99.90;;;;;;5088053;28;20437;-47
2022/08/18 08:59:23;;;;;;;53.33;38.90;;;20.70;99.90;;;;;;5088506;28;20422;-48
2022/08/18 09:01:55;;;;;;;49.30;39.30;;;20.70;99.90;;;;;;5088726;28;20418;-46
2022/08/18 09:04:27;;;;;;;55.93;40.67;;;20.70;99.90;;;;;;5088470;28;20508;-47
2022/08/18 09:07:19;;;;;;;53.67;39.67;;;20.80;99.90;;;;;;5087935;28;20418;-44
2022/08/18 09:10:16;;;;;;;48.03;37.63;;;20.70;99.90;;;;;;5088616;28;20423;-46
2022/08/18 09:12:47;;;;;;;47.83;36.70;;;20.80;99.90;;;;;;5088539;28;20493;-43
2022/08/18 09:15:32;;;;;;;48.90;38.13;;;20.90;99.90;;;;;;5088017;28;20430;-45
2022/08/18 09:18:24;;;;;;;55.13;40.67;;;21.00;99.90;;;;;;5087708;28;20422;-42
2022/08/18 09:21:03;;;;;;;57.27;40.03;;;21.00;99.90;;;;;;5086924;28;20419;-48
2022/08/18 09:23:39;;;;;;;50.67;36.47;;;21.00;99.90;;;;;;5087980;28;20506;-43
2022/08/18 09:26:44;;;;;;;46.63;36.67;;;21.10;99.90;;;;;;5088394;28;20481;-43
2022/08/18 09:29:15;;;;;;;49.30;37.73;;;21.20;99.90;;;;;;5066180;28;20898;-46
2022/08/18 09:31:45;;;;;;;46.90;38.53;;;21.30;99.90;;;;;;5087906;28;20414;-45
2022/08/18 09:34:41;;;;;;;49.73;39.90;;;21.30;99.90;;;;;;5088336;28;20471;-44
2022/08/18 09:37:18;;;;;;;48.77;40.60;;;21.40;99.90;;;;;;5087530;28;20419;-43
2022/08/18 09:43:38;;;;;;;48.77;39.43;;;21.40;99.90;;;;;;5005498;28;20527;-45
2022/08/18 09:46:06;;;;;;;45.60;38.83;;;21.40;99.90;;;;;;5005654;28;20429;-43
2022/08/18 09:48:37;;;;;;;44.90;38.17;;;21.50;99.90;;;;;;5050039;28;20429;-47
2022/08/18 09:51:14;;;;;;;47.70;39.83;;;21.60;99.90;;;;;;5092348;28;20429;-42
2022/08/18 09:53:46;;;;;;;45.30;39.47;;;21.60;99.90;;;;;;5092336;28;20786;-45
2022/08/18 09:56:36;;;;;;;44.97;38.60;;;21.70;99.90;;;;;;5091030;28;20954;-43
2022/08/18 09:59:03;;;;;;;45.20;38.17;;;21.70;99.90;;;;;;5091374;28;20429;-43
2022/08/18 10:01:29;;;;;;;48.80;41.80;;;21.60;99.90;;;;;;5092263;28;20434;-43
2022/08/18 10:04:13;;;;;;;50.50;43.40;;;21.60;99.90;;;;;;5091768;28;20458;-45
2022/08/18 10:06:40;;;;;;;49.53;42.03;;;21.60;99.90;;;;;;5091483;28;20189;-43
2022/08/18 10:09:20;;;;;;;46.40;40.47;;;21.60;99.90;;;;;;5092189;28;20819;-45
2022/08/18 10:12:20;;;;;;;45.37;39.37;;;21.60;99.90;;;;;;5090573;28;20424;-46
2022/08/18 10:15:03;;;;;;;46.77;40.77;;;21.60;99.90;;;;;;5091778;28;21018;-46
2022/08/18 10:17:34;;;;;;;50.80;43.03;;;21.60;99.90;;;;;;5090948;28;20418;-43
2022/08/18 10:20:21;;;;;;;47.40;42.17;;;21.60;99.90;;;;;;5090375;28;20778;-44
2022/08/18 10:22:49;;;;;;;46.93;39.17;;;21.60;99.90;;;;;;5091358;28;20461;-45
2022/08/18 10:25:35;;;;;;;53.77;43.73;;;21.60;99.90;;;;;;5091742;28;20801;-45
2022/08/18 10:28:04;;;;;;;50.90;41.50;;;21.60;99.90;;;;;;5088993;28;20961;-45
2022/08/18 10:30:32;;;;;;;50.53;42.00;;;21.60;99.90;;;;;;5091904;28;20424;-47
2022/08/18 10:33:50;;;;;;;47.63;42.20;;;21.60;99.90;;;;;;5091370;28;20429;-46
2022/08/18 10:36:40;;;;;;;52.60;42.60;;;21.60;99.90;;;;;;5086297;28;20426;-44
2022/08/18 10:39:11;;;;;;;48.30;40.97;;;21.70;99.90;;;;;;5091156;28;20566;-45
2022/08/18 10:41:46;;;;;;;44.00;39.20;;;21.70;99.90;;;;;;5091383;28;20810;-46
2022/08/18 10:44:15;;;;;;;46.70;41.47;;;21.80;99.90;;;;;;5090949;28;20495;-49
2022/08/18 10:46:42;;;;;;;53.20;40.10;;;21.80;99.90;;;;;;5090417;28;20445;-43
2022/08/18 10:49:11;;;;;;;47.63;40.40;;;21.90;99.90;;;;;;5090509;28;20924;-48
2022/08/18 10:52:00;;;;;;;47.03;40.10;;;21.90;99.90;;;;;;5091185;28;20430;-45
2022/08/18 10:54:35;;;;;;;46.70;38.60;;;22.00;99.90;;;;;;5090722;28;20422;-45
2022/08/18 10:57:18;;;;;;;42.63;37.20;;;22.00;99.90;;;;;;5090357;28;20570;-42
2022/08/18 10:59:53;;;;;;;53.40;43.00;;;22.10;99.90;;;;;;5090863;28;21025;-43
2022/08/18 11:02:43;;;;;;;46.97;39.60;;;22.20;99.90;;;;;;5090313;28;20736;-44
2022/08/18 11:05:13;;;;;;;47.73;40.30;;;22.10;99.90;;;;;;5090689;28;20438;-45
2022/08/18 11:07:45;;;;;;;45.53;37.80;;;22.20;99.90;;;;;;5090197;28;20438;-49
2022/08/18 11:10:33;;;;;;;47.33;39.90;;;22.30;99.90;;;;;;5090690;28;20434;-45
2022/08/18 11:13:15;;;;;;;45.00;38.13;;;22.30;99.90;;;;;;5090698;28;20787;-43
2022/08/18 11:16:11;;;;;;;46.77;40.10;;;22.40;99.90;;;;;;5090632;28;20426;-44
2022/08/18 11:18:49;;;;;;;46.33;40.43;;;22.50;99.90;;;;;;5089907;28;20445;-44
2022/08/18 11:21:43;;;;;;;47.87;39.63;;;22.50;99.90;;;;;;5089128;28;20720;-42
2022/08/18 11:24:16;;;;;;;40.87;36.17;;;22.50;99.90;;;;;;5088593;28;20561;-44
2022/08/18 11:26:51;;;;;;;45.20;39.30;;;22.60;99.90;;;;;;5089724;28;20426;-44
2022/08/18 11:29:20;;;;;;;47.53;41.00;;;22.60;99.90;;;;;;5090511;28;20550;-46
2022/08/18 11:31:52;;;;;;;45.57;39.40;;;22.70;99.90;;;;;;5090292;28;20429;-46
2022/08/18 11:34:24;;;;;;;44.10;39.70;;;22.70;99.90;;;;;;5090371;28;20502;-45
2022/08/18 11:37:02;;;;;;;43.60;39.20;;;22.70;99.90;;;;;;5089409;28;20602;-47
2022/08/18 11:39:29;;;;;;;45.83;41.03;;;22.80;99.90;;;;;;5089905;28;20524;-44
2022/08/18 11:41:56;;;;;;;42.90;38.67;;;22.80;99.90;;;;;;5090005;28;20434;-45
2022/08/18 11:44:30;;;;;;;44.43;39.60;;;22.80;99.90;;;;;;5089956;28;20506;-43
2022/08/18 11:47:12;;;;;;;40.33;36.30;;;22.80;99.90;;;;;;5089392;28;20434;-43
2022/08/18 11:49:56;;;;;;;43.07;38.60;;;22.90;99.90;;;;;;5090231;28;20512;-43
2022/08/18 11:52:30;;;;;;;43.77;39.03;;;22.80;99.90;;;;;;5090293;28;20521;-42
2022/08/18 11:55:01;;;;;;;47.73;41.67;;;22.80;99.90;;;;;;5089898;28;20483;-44
2022/08/18 11:57:41;;;;;;;43.47;38.97;;;22.70;99.90;;;;;;5089086;28;20429;-47
2022/08/18 12:00:38;;;;;;;42.80;38.30;;;22.70;99.90;;;;;;5089815;28;20471;-43
2022/08/18 12:03:08;;;;;;;43.80;39.17;;;22.70;99.90;;;;;;5089670;28;20454;-45
2022/08/18 12:06:01;;;;;;;44.10;39.60;;;22.60;99.90;;;;;;5089549;28;20499;-47
2022/08/18 12:08:36;;;;;;;41.27;37.10;;;22.60;99.90;;;;;;5067008;28;20434;-43
2022/08/18 12:11:04;;;;;;;42.27;37.87;;;22.60;99.90;;;;;;5089634;28;20554;-48
2022/08/18 12:13:30;;;;;;;38.50;34.80;;;22.60;99.90;;;;;;5089160;28;20422;-45
2022/08/18 12:16:13;;;;;;;45.50;40.90;;;22.50;99.90;;;;;;5089570;28;20813;-42
2022/08/18 12:18:38;;;;;;;45.30;40.70;;;22.50;99.90;;;;;;5088605;28;20844;-44
2022/08/18 12:21:05;;;;;;;42.77;38.50;;;22.50;99.90;;;;;;5087904;28;20454;-45
2022/08/18 12:23:33;;;;;;;45.20;40.53;;;22.50;99.90;;;;;;5089361;28;20283;-45
2022/08/18 12:25:59;;;;;;;40.83;36.30;;;22.50;99.90;;;;;;5089437;28;20461;-47
2022/08/18 12:28:26;;;;;;;42.57;38.20;;;22.50;99.90;;;;;;5088517;28;20450;-45
2022/08/18 12:30:52;;;;;;;40.53;36.17;;;22.50;99.90;;;;;;5089085;28;20370;-43
2022/08/18 12:33:18;;;;;;;39.63;35.67;;;22.50;99.90;;;;;;5089328;28;20423;-47
2022/08/18 12:35:44;;;;;;;35.47;31.77;;;22.60;99.90;;;;;;5089213;28;20440;-43
2022/08/18 12:38:11;;;;;;;33.70;30.17;;;22.60;99.90;;;;;;5088625;28;20426;-45
2022/08/18 12:40:37;;;;;;;35.50;31.90;;;22.60;99.90;;;;;;5089015;28;20655;-49
2022/08/18 12:43:03;;;;;;;36.83;31.33;;;22.60;99.90;;;;;;5089062;28;20458;-42
2022/08/18 12:45:29;;;;;;;36.00;32.40;;;22.60;99.90;;;;;;5088605;28;20791;-44
2022/08/18 12:47:55;;;;;;;33.30;28.77;;;22.60;99.90;;;;;;5088263;28;20427;-43
2022/08/18 12:50:22;;;;;;;33.03;29.80;;;22.60;99.90;;;;;;5088741;28;20468;-48
2022/08/18 12:52:47;;;;;;;34.00;30.50;;;22.60;99.90;;;;;;5089014;28;20422;-48
2022/08/18 12:55:13;;;;;;;32.20;28.90;;;22.70;99.90;;;;;;5087634;28;20438;-45
2022/08/18 12:57:39;;;;;;;33.73;30.47;;;22.70;99.90;;;;;;5088196;28;20184;-44
2022/08/18 13:00:07;;;;;;;33.50;30.30;;;22.80;99.90;;;;;;5088098;28;20810;-44
2022/08/18 13:02:33;;;;;;;31.27;28.33;;;22.80;99.90;;;;;;5088610;28;20219;-45
2022/08/18 13:04:59;;;;;;;33.00;29.43;;;23.00;99.90;;;;;;5088335;28;20814;-45
2022/08/18 13:07:24;;;;;;;34.03;30.80;;;23.00;99.90;;;;;;5088000;28;20397;-42
2022/08/18 13:09:50;;;;;;;31.50;28.50;;;23.00;99.90;;;;;;5088801;28;20177;-45
2022/08/18 13:12:17;;;;;;;30.93;27.90;;;23.10;99.90;;;;;;5088490;28;20183;-44